sensor_id;sensor_type;location;lat;lon;timestamp;pressure;altitude;pressure_sealevel;temperature;humidity
71004;BME280;59025;42.050;-8.660;2022-07-05T00:00:22;100909.34;;;21.13;100.00
71004;BME280;59025;42.050;-8.660;2022-07-05T00:02:50;100912.50;;;21.05;100.00
71004;BME280;59025;42.050;-8.660;2022-07-05T00:05:17;100898.34;;;21.01;100.00
71004;BME280;59025;42.050;-8.660;2022-07-05T00:07:45;100902.25;;;20.94;100.00
71004;BME280;59025;42.050;-8.660;2022-07-05T00:10:12;100908.28;;;20.94;100.00
71004;BME280;59025;42.050;-8.660;2022-07-05T00:12:39;100912.69;;;20.89;100.00
71004;BME280;59025;42.050;-8.660;2022-07-05T00:15:08;100916.06;;;20.84;100.00
71004;BME280;59025;42.050;-8.660;2022-07-05T00:17:37;100913.44;;;20.79;100.00
71004;BME280;59025;42.050;-8.660;2022-07-05T00:20:05;100911.59;;;20.75;100.00
71004;BME280;59025;42.050;-8.660;2022-07-05T00:22:33;100910.78;;;20.69;100.00
71004;BME280;59025;42.050;-8.660;2022-07-05T00:25:00;100911.31;;;20.66;100.00
71004;BME280;59025;42.050;-8.660;2022-07-05T00:27:28;100923.84;;;20.59;100.00
71004;BME280;59025;42.050;-8.660;2022-07-05T00:29:55;100922.75;;;20.55;100.00
71004;BME280;59025;42.050;-8.660;2022-07-05T00:32:23;100920.66;;;20.52;100.00
71004;BME280;59025;42.050;-8.660;2022-07-05T00:34:52;100919.31;;;20.50;100.00
71004;BME280;59025;42.050;-8.660;2022-07-05T00:37:19;100920.09;;;20.45;100.00
71004;BME280;59025;42.050;-8.660;2022-07-05T00:39:46;100914.31;;;20.38;100.00
71004;BME280;59025;42.050;-8.660;2022-07-05T00:42:14;100920.06;;;20.35;100.00
71004;BME280;59025;42.050;-8.660;2022-07-05T00:44:41;100921.06;;;20.29;100.00
71004;BME280;59025;42.050;-8.660;2022-07-05T00:47:10;100922.88;;;20.24;100.00
71004;BME280;59025;42.050;-8.660;2022-07-05T00:49:39;100920.22;;;20.19;100.00
71004;BME280;59025;42.050;-8.660;2022-07-05T00:52:10;100919.97;;;20.15;100.00
71004;BME280;59025;42.050;-8.660;2022-07-05T00:54:38;100915.75;;;20.09;100.00
71004;BME280;59025;42.050;-8.660;2022-07-05T00:57:06;100920.41;;;20.07;100.00
71004;BME280;59025;42.050;-8.660;2022-07-05T00:59:34;100907.03;;;20.04;100.00
71004;BME280;59025;42.050;-8.660;2022-07-05T01:02:02;100919.81;;;20.00;100.00
71004;BME280;59025;42.050;-8.660;2022-07-05T01:04:29;100913.28;;;19.98;100.00
71004;BME280;59025;42.050;-8.660;2022-07-05T01:06:58;100926.28;;;19.93;100.00
71004;BME280;59025;42.050;-8.660;2022-07-05T01:09:27;100923.91;;;19.86;100.00
71004;BME280;59025;42.050;-8.660;2022-07-05T01:11:56;100920.22;;;19.82;100.00
71004;BME280;59025;42.050;-8.660;2022-07-05T01:14:23;100924.66;;;19.82;100.00
71004;BME280;59025;42.050;-8.660;2022-07-05T01:16:52;100911.88;;;19.80;100.00
71004;BME280;59025;42.050;-8.660;2022-07-05T01:19:20;100918.91;;;19.80;100.00
71004;BME280;59025;42.050;-8.660;2022-07-05T01:21:49;100911.03;;;19.75;100.00
71004;BME280;59025;42.050;-8.660;2022-07-05T01:24:19;100919.91;;;19.74;100.00
71004;BME280;59025;42.050;-8.660;2022-07-05T01:26:49;100910.53;;;19.78;100.00
71004;BME280;59025;42.050;-8.660;2022-07-05T01:29:17;100927.22;;;19.77;100.00
71004;BME280;59025;42.050;-8.660;2022-07-05T01:31:45;100920.94;;;19.73;100.00
71004;BME280;59025;42.050;-8.660;2022-07-05T01:34:12;100915.44;;;19.69;100.00
71004;BME280;59025;42.050;-8.660;2022-07-05T01:36:39;100930.03;;;19.65;100.00
71004;BME280;59025;42.050;-8.660;2022-07-05T01:39:07;100925.56;;;19.61;100.00
71004;BME280;59025;42.050;-8.660;2022-07-05T01:41:36;100928.41;;;19.59;100.00
71004;BME280;59025;42.050;-8.660;2022-07-05T01:44:04;100933.34;;;19.56;100.00
71004;BME280;59025;42.050;-8.660;2022-07-05T01:46:32;100923.38;;;19.53;100.00
71004;BME280;59025;42.050;-8.660;2022-07-05T01:49:05;100921.00;;;19.51;100.00
71004;BME280;59025;42.050;-8.660;2022-07-05T01:51:34;100930.13;;;19.49;100.00
71004;BME280;59025;42.050;-8.660;2022-07-05T01:54:05;100911.84;;;19.44;100.00
71004;BME280;59025;42.050;-8.660;2022-07-05T01:56:32;100918.88;;;19.43;100.00
71004;BME280;59025;42.050;-8.660;2022-07-05T01:59:01;100933.44;;;19.39;100.00
71004;BME280;59025;42.050;-8.660;2022-07-05T02:01:33;100936.00;;;19.34;100.00
71004;BME280;59025;42.050;-8.660;2022-07-05T02:04:01;100925.84;;;19.33;100.00
71004;BME280;59025;42.050;-8.660;2022-07-05T02:06:30;100932.03;;;19.27;100.00
71004;BME280;59025;42.050;-8.660;2022-07-05T02:08:58;100937.19;;;19.22;100.00
71004;BME280;59025;42.050;-8.660;2022-07-05T02:11:25;100923.28;;;19.16;100.00
71004;BME280;59025;42.050;-8.660;2022-07-05T02:13:53;100930.81;;;19.13;100.00
71004;BME280;59025;42.050;-8.660;2022-07-05T02:16:24;100929.72;;;19.09;100.00
71004;BME280;59025;42.050;-8.660;2022-07-05T02:18:52;100933.59;;;19.06;100.00
71004;BME280;59025;42.050;-8.660;2022-07-05T02:21:19;100933.06;;;19.04;100.00
71004;BME280;59025;42.050;-8.660;2022-07-05T02:23:47;100927.78;;;18.99;100.00
71004;BME280;59025;42.050;-8.660;2022-07-05T02:26:14;100931.69;;;18.97;100.00
71004;BME280;59025;42.050;-8.660;2022-07-05T02:28:42;100939.44;;;18.92;100.00
71004;BME280;59025;42.050;-8.660;2022-07-05T02:31:09;100943.88;;;18.91;100.00
71004;BME280;59025;42.050;-8.660;2022-07-05T02:33:38;100942.25;;;18.85;100.00
71004;BME280;59025;42.050;-8.660;2022-07-05T02:36:07;100944.28;;;18.83;100.00
71004;BME280;59025;42.050;-8.660;2022-07-05T02:38:35;100933.34;;;18.81;100.00
71004;BME280;59025;42.050;-8.660;2022-07-05T02:41:05;100938.78;;;18.80;100.00
71004;BME280;59025;42.050;-8.660;2022-07-05T02:43:33;100933.50;;;18.75;100.00
71004;BME280;59025;42.050;-8.660;2022-07-05T02:46:01;100922.53;;;18.73;100.00
71004;BME280;59025;42.050;-8.660;2022-07-05T02:48:29;100931.63;;;18.70;100.00
71004;BME280;59025;42.050;-8.660;2022-07-05T02:50:58;100923.28;;;18.68;100.00
71004;BME280;59025;42.050;-8.660;2022-07-05T02:53:25;100917.22;;;18.63;100.00
71004;BME280;59025;42.050;-8.660;2022-07-05T02:55:54;100928.66;;;18.62;100.00
71004;BME280;59025;42.050;-8.660;2022-07-05T02:58:21;100929.94;;;18.59;100.00
71004;BME280;59025;42.050;-8.660;2022-07-05T03:00:49;100918.47;;;18.60;100.00
71004;BME280;59025;42.050;-8.660;2022-07-05T03:03:16;100926.28;;;18.60;100.00
71004;BME280;59025;42.050;-8.660;2022-07-05T03:05:44;100933.59;;;18.58;100.00
71004;BME280;59025;42.050;-8.660;2022-07-05T03:08:13;100934.34;;;18.59;100.00
71004;BME280;59025;42.050;-8.660;2022-07-05T03:10:40;100917.41;;;18.56;100.00
71004;BME280;59025;42.050;-8.660;2022-07-05T03:13:08;100926.50;;;18.54;100.00
71004;BME280;59025;42.050;-8.660;2022-07-05T03:15:35;100912.66;;;18.53;100.00
71004;BME280;59025;42.050;-8.660;2022-07-05T03:18:03;100918.34;;;18.50;100.00
71004;BME280;59025;42.050;-8.660;2022-07-05T03:20:30;100915.44;;;18.47;100.00
71004;BME280;59025;42.050;-8.660;2022-07-05T03:22:58;100919.31;;;18.44;100.00
71004;BME280;59025;42.050;-8.660;2022-07-05T03:25:27;100924.00;;;18.42;100.00
71004;BME280;59025;42.050;-8.660;2022-07-05T03:27:54;100917.50;;;18.45;100.00
71004;BME280;59025;42.050;-8.660;2022-07-05T03:30:22;100913.56;;;18.42;100.00
71004;BME280;59025;42.050;-8.660;2022-07-05T03:32:49;100912.00;;;18.41;100.00
71004;BME280;59025;42.050;-8.660;2022-07-05T03:35:17;100922.41;;;18.41;100.00
71004;BME280;59025;42.050;-8.660;2022-07-05T03:37:44;100912.00;;;18.41;100.00
71004;BME280;59025;42.050;-8.660;2022-07-05T03:40:12;100907.03;;;18.40;100.00
71004;BME280;59025;42.050;-8.660;2022-07-05T03:42:41;100912.47;;;18.38;100.00
71004;BME280;59025;42.050;-8.660;2022-07-05T03:45:09;100909.84;;;18.38;100.00
71004;BME280;59025;42.050;-8.660;2022-07-05T03:47:37;100904.13;;;18.36;100.00
71004;BME280;59025;42.050;-8.660;2022-07-05T03:50:05;100912.41;;;18.33;100.00
71004;BME280;59025;42.050;-8.660;2022-07-05T03:52:33;100904.84;;;18.32;100.00
71004;BME280;59025;42.050;-8.660;2022-07-05T03:55:00;100912.41;;;18.33;100.00
71004;BME280;59025;42.050;-8.660;2022-07-05T03:57:28;100908.22;;;18.32;100.00
71004;BME280;59025;42.050;-8.660;2022-07-05T03:59:57;100913.66;;;18.31;100.00
71004;BME280;59025;42.050;-8.660;2022-07-05T04:02:24;100905.28;;;18.29;100.00
71004;BME280;59025;42.050;-8.660;2022-07-05T04:04:52;100912.00;;;18.25;100.00
71004;BME280;59025;42.050;-8.660;2022-07-05T04:07:19;100915.09;;;18.22;100.00
71004;BME280;59025;42.050;-8.660;2022-07-05T04:09:47;100922.91;;;18.22;100.00
71004;BME280;59025;42.050;-8.660;2022-07-05T04:12:14;100917.47;;;18.23;100.00
71004;BME280;59025;42.050;-8.660;2022-07-05T04:14:42;100909.16;;;18.26;100.00
71004;BME280;59025;42.050;-8.660;2022-07-05T04:17:11;100909.94;;;18.27;100.00
71004;BME280;59025;42.050;-8.660;2022-07-05T04:19:38;100906.00;;;18.24;100.00
71004;BME280;59025;42.050;-8.660;2022-07-05T04:22:06;100903.63;;;18.23;100.00
71004;BME280;59025;42.050;-8.660;2022-07-05T04:24:33;100899.69;;;18.20;100.00
71004;BME280;59025;42.050;-8.660;2022-07-05T04:27:21;100905.41;;;18.17;100.00
71004;BME280;59025;42.050;-8.660;2022-07-05T04:29:49;100903.81;;;18.16;100.00
71004;BME280;59025;42.050;-8.660;2022-07-05T04:32:18;100910.84;;;18.16;100.00
71004;BME280;59025;42.050;-8.660;2022-07-05T04:34:45;100903.03;;;18.16;100.00
71004;BME280;59025;42.050;-8.660;2022-07-05T04:37:13;100905.88;;;18.14;100.00
71004;BME280;59025;42.050;-8.660;2022-07-05T04:39:40;100895.44;;;18.14;100.00
71004;BME280;59025;42.050;-8.660;2022-07-05T04:42:08;100911.31;;;18.13;100.00
71004;BME280;59025;42.050;-8.660;2022-07-05T04:44:35;100918.34;;;18.12;100.00
71004;BME280;59025;42.050;-8.660;2022-07-05T04:47:03;100919.63;;;18.10;100.00
71004;BME280;59025;42.050;-8.660;2022-07-05T04:49:32;100919.31;;;18.06;100.00
71004;BME280;59025;42.050;-8.660;2022-07-05T04:52:00;100919.31;;;18.06;100.00
71004;BME280;59025;42.050;-8.660;2022-07-05T04:54:27;100923.19;;;18.04;100.00
71004;BME280;59025;42.050;-8.660;2022-07-05T04:56:55;100924.44;;;18.01;100.00
71004;BME280;59025;42.050;-8.660;2022-07-05T04:59:22;100919.47;;;18.00;100.00
71004;BME280;59025;42.050;-8.660;2022-07-05T05:01:49;100924.44;;;18.01;100.00
71004;BME280;59025;42.050;-8.660;2022-07-05T05:04:17;100916.63;;;18.01;100.00
71004;BME280;59025;42.050;-8.660;2022-07-05T05:06:46;100921.53;;;17.98;100.00
71004;BME280;59025;42.050;-8.660;2022-07-05T05:09:13;100919.69;;;17.98;100.00
71004;BME280;59025;42.050;-8.660;2022-07-05T05:11:41;100923.88;;;17.99;100.00
71004;BME280;59025;42.050;-8.660;2022-07-05T05:14:08;100927.34;;;18.05;100.00
71004;BME280;59025;42.050;-8.660;2022-07-05T05:16:36;100934.94;;;18.06;100.00
71004;BME280;59025;42.050;-8.660;2022-07-05T05:19:03;100940.13;;;18.06;100.00
71004;BME280;59025;42.050;-8.660;2022-07-05T05:21:31;100946.13;;;18.07;100.00
71004;BME280;59025;42.050;-8.660;2022-07-05T05:24:00;100932.88;;;18.08;100.00
71004;BME280;59025;42.050;-8.660;2022-07-05T05:26:27;100930.25;;;18.08;100.00
71004;BME280;59025;42.050;-8.660;2022-07-05T05:28:55;100935.47;;;18.08;100.00
71004;BME280;59025;42.050;-8.660;2022-07-05T05:31:22;100935.00;;;18.11;100.00
71004;BME280;59025;42.050;-8.660;2022-07-05T05:33:50;100936.09;;;18.15;100.00
71004;BME280;59025;42.050;-8.660;2022-07-05T05:36:17;100929.22;;;18.26;100.00
71004;BME280;59025;42.050;-8.660;2022-07-05T05:38:45;100934.41;;;18.42;100.00
71004;BME280;59025;42.050;-8.660;2022-07-05T05:41:13;100925.81;;;18.85;100.00
71004;BME280;59025;42.050;-8.660;2022-07-05T05:43:41;100916.94;;;19.07;100.00
71004;BME280;59025;42.050;-8.660;2022-07-05T05:46:08;100906.75;;;19.32;100.00
71004;BME280;59025;42.050;-8.660;2022-07-05T05:48:36;100903.25;;;19.48;100.00
71004;BME280;59025;42.050;-8.660;2022-07-05T05:51:03;100913.50;;;19.55;100.00
71004;BME280;59025;42.050;-8.660;2022-07-05T05:53:31;100906.06;;;19.73;100.00
71004;BME280;59025;42.050;-8.660;2022-07-05T05:55:58;100909.97;;;19.76;100.00
71004;BME280;59025;42.050;-8.660;2022-07-05T05:58:27;100908.06;;;19.98;100.00
71004;BME280;59025;42.050;-8.660;2022-07-05T06:00:55;100900.81;;;19.73;100.00
71004;BME280;59025;42.050;-8.660;2022-07-05T06:03:23;100927.06;;;19.25;100.00
71004;BME280;59025;42.050;-8.660;2022-07-05T06:05:51;100924.50;;;19.09;100.00
71004;BME280;59025;42.050;-8.660;2022-07-05T06:08:18;100943.09;;;18.91;100.00
71004;BME280;59025;42.050;-8.660;2022-07-05T06:10:46;100934.44;;;18.85;100.00
71004;BME280;59025;42.050;-8.660;2022-07-05T06:13:14;100949.63;;;18.93;100.00
71004;BME280;59025;42.050;-8.660;2022-07-05T06:15:43;100929.28;;;18.90;100.00
71004;BME280;59025;42.050;-8.660;2022-07-05T06:18:11;100944.59;;;18.87;100.00
71004;BME280;59025;42.050;-8.660;2022-07-05T06:20:39;100942.31;;;18.90;100.00
71004;BME280;59025;42.050;-8.660;2022-07-05T06:23:07;100954.84;;;18.93;100.00
71004;BME280;59025;42.050;-8.660;2022-07-05T06:25:34;100949.41;;;18.95;100.00
71004;BME280;59025;42.050;-8.660;2022-07-05T06:28:03;100948.66;;;18.99;100.00
71004;BME280;59025;42.050;-8.660;2022-07-05T06:30:33;100946.03;;;18.99;100.00
71004;BME280;59025;42.050;-8.660;2022-07-05T06:33:03;100957.56;;;19.03;100.00
71004;BME280;59025;42.050;-8.660;2022-07-05T06:35:31;100955.56;;;19.10;100.00
71004;BME280;59025;42.050;-8.660;2022-07-05T06:38:01;100954.28;;;19.13;100.00
71004;BME280;59025;42.050;-8.660;2022-07-05T06:40:30;100949.88;;;19.13;100.00
71004;BME280;59025;42.050;-8.660;2022-07-05T06:42:58;100960.84;;;19.15;100.00
71004;BME280;59025;42.050;-8.660;2022-07-05T06:45:26;100953.06;;;19.20;100.00
71004;BME280;59025;42.050;-8.660;2022-07-05T06:47:55;100955.47;;;19.22;100.00
71004;BME280;59025;42.050;-8.660;2022-07-05T06:50:24;100981.56;;;19.22;100.00
71004;BME280;59025;42.050;-8.660;2022-07-05T06:52:52;100965.69;;;19.28;100.00
71004;BME280;59025;42.050;-8.660;2022-07-05T06:55:21;100962.09;;;19.34;100.00
71004;BME280;59025;42.050;-8.660;2022-07-05T06:57:49;100963.47;;;19.42;100.00
71004;BME280;59025;42.050;-8.660;2022-07-05T07:00:16;100948.09;;;19.72;100.00
71004;BME280;59025;42.050;-8.660;2022-07-05T07:02:44;100947.44;;;19.86;100.00
71004;BME280;59025;42.050;-8.660;2022-07-05T07:05:11;100949.06;;;19.97;100.00
71004;BME280;59025;42.050;-8.660;2022-07-05T07:07:41;100933.50;;;20.59;100.00
71004;BME280;59025;42.050;-8.660;2022-07-05T07:10:25;100910.94;;;21.19;100.00
71004;BME280;59025;42.050;-8.660;2022-07-05T07:12:52;100914.81;;;22.32;100.00
71004;BME280;59025;42.050;-8.660;2022-07-05T07:15:20;100901.56;;;22.72;100.00
71004;BME280;59025;42.050;-8.660;2022-07-05T07:17:48;100905.25;;;22.66;100.00
71004;BME280;59025;42.050;-8.660;2022-07-05T07:20:15;100888.91;;;23.56;100.00
71004;BME280;59025;42.050;-8.660;2022-07-05T07:22:44;100899.00;;;23.72;100.00
71004;BME280;59025;42.050;-8.660;2022-07-05T07:25:11;100894.50;;;23.78;100.00
71004;BME280;59025;42.050;-8.660;2022-07-05T07:27:42;100889.19;;;23.88;100.00
71004;BME280;59025;42.050;-8.660;2022-07-05T07:30:11;100888.69;;;24.09;100.00
71004;BME280;59025;42.050;-8.660;2022-07-05T07:32:39;100884.97;;;24.34;100.00
71004;BME280;59025;42.050;-8.660;2022-07-05T07:35:08;100888.47;;;24.90;100.00
71004;BME280;59025;42.050;-8.660;2022-07-05T07:37:36;100877.84;;;25.64;100.00
71004;BME280;59025;42.050;-8.660;2022-07-05T07:40:06;100871.56;;;26.05;100.00
71004;BME280;59025;42.050;-8.660;2022-07-05T07:42:34;100865.44;;;25.78;100.00
71004;BME280;59025;42.050;-8.660;2022-07-05T07:45:02;100866.63;;;25.85;100.00
71004;BME280;59025;42.050;-8.660;2022-07-05T07:47:30;100865.06;;;25.84;100.00
71004;BME280;59025;42.050;-8.660;2022-07-05T07:49:57;100852.09;;;26.01;100.00
71004;BME280;59025;42.050;-8.660;2022-07-05T07:52:25;100865.19;;;26.06;100.00
71004;BME280;59025;42.050;-8.660;2022-07-05T07:54:52;100877.84;;;25.77;100.00
71004;BME280;59025;42.050;-8.660;2022-07-05T07:57:21;100869.72;;;25.87;100.00
71004;BME280;59025;42.050;-8.660;2022-07-05T07:59:48;100866.81;;;25.89;100.00
71004;BME280;59025;42.050;-8.660;2022-07-05T08:02:16;100865.06;;;25.84;100.00
71004;BME280;59025;42.050;-8.660;2022-07-05T08:04:47;100856.59;;;26.01;100.00
71004;BME280;59025;42.050;-8.660;2022-07-05T08:07:14;100866.09;;;26.51;100.00
71004;BME280;59025;42.050;-8.660;2022-07-05T08:09:43;100862.09;;;26.53;100.00
71004;BME280;59025;42.050;-8.660;2022-07-05T08:12:11;100874.53;;;26.66;100.00
71004;BME280;59025;42.050;-8.660;2022-07-05T08:14:40;100867.38;;;26.67;100.00
71004;BME280;59025;42.050;-8.660;2022-07-05T08:17:07;100869.13;;;26.71;100.00
71004;BME280;59025;42.050;-8.660;2022-07-05T08:19:35;100862.13;;;27.55;100.00
71004;BME280;59025;42.050;-8.660;2022-07-05T08:22:21;100857.44;;;27.82;100.00
71004;BME280;59025;42.050;-8.660;2022-07-05T08:24:48;100858.06;;;27.79;100.00
71004;BME280;59025;42.050;-8.660;2022-07-05T08:27:16;100862.06;;;28.07;100.00
71004;BME280;59025;42.050;-8.660;2022-07-05T08:29:45;100854.13;;;28.16;100.00
71004;BME280;59025;42.050;-8.660;2022-07-05T08:32:13;100851.88;;;27.92;100.00
71004;BME280;59025;42.050;-8.660;2022-07-05T08:34:40;100859.91;;;27.79;100.00
71004;BME280;59025;42.050;-8.660;2022-07-05T08:37:08;100855.75;;;27.86;100.00
71004;BME280;59025;42.050;-8.660;2022-07-05T08:39:36;100871.34;;;27.66;100.00
71004;BME280;59025;42.050;-8.660;2022-07-05T08:42:07;100862.56;;;28.35;100.00
71004;BME280;59025;42.050;-8.660;2022-07-05T08:44:38;100866.53;;;28.88;100.00
71004;BME280;59025;42.050;-8.660;2022-07-05T08:47:09;100867.66;;;29.67;100.00
71004;BME280;59025;42.050;-8.660;2022-07-05T08:49:39;100869.09;;;29.48;100.00
71004;BME280;59025;42.050;-8.660;2022-07-05T08:52:10;100872.72;;;29.35;100.00
71004;BME280;59025;42.050;-8.660;2022-07-05T08:54:39;100857.97;;;29.71;100.00
71004;BME280;59025;42.050;-8.660;2022-07-05T08:57:06;100858.31;;;29.61;100.00
71004;BME280;59025;42.050;-8.660;2022-07-05T08:59:34;100858.72;;;29.26;100.00
71004;BME280;59025;42.050;-8.660;2022-07-05T09:02:02;100855.47;;;28.78;100.00
71004;BME280;59025;42.050;-8.660;2022-07-05T09:04:35;100858.00;;;29.00;100.00
71004;BME280;59025;42.050;-8.660;2022-07-05T09:07:04;100854.47;;;29.33;100.00
71004;BME280;59025;42.050;-8.660;2022-07-05T09:09:34;100850.91;;;29.75;100.00
71004;BME280;59025;42.050;-8.660;2022-07-05T09:12:08;100850.63;;;30.55;100.00
71004;BME280;59025;42.050;-8.660;2022-07-05T09:14:36;100854.78;;;31.18;100.00
71004;BME280;59025;42.050;-8.660;2022-07-05T09:17:04;100854.94;;;31.01;100.00
71004;BME280;59025;42.050;-8.660;2022-07-05T09:19:33;100861.28;;;30.76;100.00
71004;BME280;59025;42.050;-8.660;2022-07-05T09:22:01;100849.44;;;31.18;100.00
71004;BME280;59025;42.050;-8.660;2022-07-05T09:24:30;100850.06;;;30.70;100.00
71004;BME280;59025;42.050;-8.660;2022-07-05T09:27:04;100847.56;;;30.45;100.00
71004;BME280;59025;42.050;-8.660;2022-07-05T09:29:32;100847.19;;;30.05;100.00
71004;BME280;59025;42.050;-8.660;2022-07-05T09:31:59;100841.28;;;30.00;100.00
71004;BME280;59025;42.050;-8.660;2022-07-05T09:34:28;100835.94;;;29.79;100.00
71004;BME280;59025;42.050;-8.660;2022-07-05T09:36:58;100830.41;;;29.55;100.00
71004;BME280;59025;42.050;-8.660;2022-07-05T09:39:38;100831.31;;;30.26;100.00
71004;BME280;59025;42.050;-8.660;2022-07-05T09:42:11;100839.53;;;31.27;100.00
71004;BME280;59025;42.050;-8.660;2022-07-05T09:44:41;100846.13;;;32.13;100.00
71004;BME280;59025;42.050;-8.660;2022-07-05T09:47:11;100857.69;;;31.81;100.00
71004;BME280;59025;42.050;-8.660;2022-07-05T09:49:41;100848.44;;;31.10;100.00
71004;BME280;59025;42.050;-8.660;2022-07-05T09:52:12;100844.72;;;31.80;100.00
71004;BME280;59025;42.050;-8.660;2022-07-05T09:55:03;100845.28;;;31.29;100.00
71004;BME280;59025;42.050;-8.660;2022-07-05T09:57:31;100843.13;;;31.10;100.00
71004;BME280;59025;42.050;-8.660;2022-07-05T10:00:00;100838.63;;;31.79;100.00
71004;BME280;59025;42.050;-8.660;2022-07-05T10:02:36;100843.13;;;32.39;100.00
71004;BME280;59025;42.050;-8.660;2022-07-05T10:05:11;100838.97;;;33.08;100.00
71004;BME280;59025;42.050;-8.660;2022-07-05T10:07:42;100830.00;;;33.01;99.59
71004;BME280;59025;42.050;-8.660;2022-07-05T10:10:12;100838.28;;;33.11;100.00
71004;BME280;59025;42.050;-8.660;2022-07-05T10:12:41;100832.13;;;32.95;100.00
71004;BME280;59025;42.050;-8.660;2022-07-05T10:15:10;100830.09;;;33.20;99.76
71004;BME280;59025;42.050;-8.660;2022-07-05T10:17:41;100830.59;;;33.37;95.65
71004;BME280;59025;42.050;-8.660;2022-07-05T10:20:14;100833.50;;;33.63;93.54
71004;BME280;59025;42.050;-8.660;2022-07-05T10:22:46;100831.69;;;33.98;93.91
71004;BME280;59025;42.050;-8.660;2022-07-05T10:25:14;100833.94;;;33.81;91.11
71004;BME280;59025;42.050;-8.660;2022-07-05T10:27:42;100829.50;;;34.04;94.49
71004;BME280;59025;42.050;-8.660;2022-07-05T10:30:11;100821.50;;;33.11;99.31
71004;BME280;59025;42.050;-8.660;2022-07-05T10:32:39;100813.28;;;32.88;100.00
71004;BME280;59025;42.050;-8.660;2022-07-05T10:35:07;100809.75;;;33.27;100.00
71004;BME280;59025;42.050;-8.660;2022-07-05T10:37:35;100811.94;;;32.94;100.00
71004;BME280;59025;42.050;-8.660;2022-07-05T10:40:06;100804.13;;;33.63;100.00
71004;BME280;59025;42.050;-8.660;2022-07-05T10:42:39;100803.00;;;33.02;100.00
71004;BME280;59025;42.050;-8.660;2022-07-05T10:45:27;100801.75;;;33.27;100.00
71004;BME280;59025;42.050;-8.660;2022-07-05T10:48:18;100796.63;;;33.22;100.00
71004;BME280;59025;42.050;-8.660;2022-07-05T10:50:48;100794.78;;;33.38;100.00
71004;BME280;59025;42.050;-8.660;2022-07-05T10:53:16;100803.28;;;33.28;100.00
71004;BME280;59025;42.050;-8.660;2022-07-05T10:55:53;100800.97;;;33.42;98.40
71004;BME280;59025;42.050;-8.660;2022-07-05T10:58:26;100796.22;;;33.67;96.42
71004;BME280;59025;42.050;-8.660;2022-07-05T11:04:28;100794.50;;;34.66;94.94
71004;BME280;59025;42.050;-8.660;2022-07-05T11:07:00;100798.88;;;34.55;97.01
71004;BME280;59025;42.050;-8.660;2022-07-05T11:09:27;100788.75;;;34.83;93.06
71004;BME280;59025;42.050;-8.660;2022-07-05T11:12:07;100800.06;;;34.95;92.15
71004;BME280;59025;42.050;-8.660;2022-07-05T11:14:38;100797.25;;;34.88;93.03
71004;BME280;59025;42.050;-8.660;2022-07-05T11:17:14;100803.19;;;34.78;91.37
71004;BME280;59025;42.050;-8.660;2022-07-05T11:20:15;100803.19;;;34.06;97.31
71004;BME280;59025;42.050;-8.660;2022-07-05T11:23:09;100797.66;;;34.30;92.71
71004;BME280;59025;42.050;-8.660;2022-07-05T11:25:41;100797.09;;;34.24;96.30
71004;BME280;59025;42.050;-8.660;2022-07-05T11:28:19;100796.81;;;34.10;100.00
71004;BME280;59025;42.050;-8.660;2022-07-05T11:30:56;100796.50;;;34.31;99.88
71004;BME280;59025;42.050;-8.660;2022-07-05T11:33:33;100789.03;;;34.21;98.04
71004;BME280;59025;42.050;-8.660;2022-07-05T11:36:01;100782.81;;;34.32;99.63
71004;BME280;59025;42.050;-8.660;2022-07-05T11:38:30;100785.63;;;34.05;97.63
71004;BME280;59025;42.050;-8.660;2022-07-05T11:41:11;100782.22;;;34.61;98.04
71004;BME280;59025;42.050;-8.660;2022-07-05T11:43:41;100783.50;;;33.95;100.00
71004;BME280;59025;42.050;-8.660;2022-07-05T11:46:09;100782.81;;;34.17;100.00
71004;BME280;59025;42.050;-8.660;2022-07-05T11:48:36;100784.41;;;34.18;98.21
71004;BME280;59025;42.050;-8.660;2022-07-05T11:51:14;100787.78;;;34.34;98.93
71004;BME280;59025;42.050;-8.660;2022-07-05T11:53:42;100780.16;;;34.17;100.00
71004;BME280;59025;42.050;-8.660;2022-07-05T11:56:10;100778.72;;;33.85;100.00
71004;BME280;59025;42.050;-8.660;2022-07-05T11:58:38;100772.72;;;34.26;100.00
71004;BME280;59025;42.050;-8.660;2022-07-05T12:01:07;100766.25;;;33.58;100.00
71004;BME280;59025;42.050;-8.660;2022-07-05T12:03:34;100759.38;;;33.41;100.00
71004;BME280;59025;42.050;-8.660;2022-07-05T12:06:12;100755.78;;;33.03;100.00
71004;BME280;59025;42.050;-8.660;2022-07-05T12:08:39;100747.28;;;33.28;100.00
71004;BME280;59025;42.050;-8.660;2022-07-05T12:11:10;100749.72;;;33.52;100.00
71004;BME280;59025;42.050;-8.660;2022-07-05T12:14:03;100752.66;;;33.97;100.00
71004;BME280;59025;42.050;-8.660;2022-07-05T12:16:32;100752.50;;;33.90;100.00
71004;BME280;59025;42.050;-8.660;2022-07-05T12:19:00;100763.19;;;33.90;100.00
71004;BME280;59025;42.050;-8.660;2022-07-05T12:21:28;100760.84;;;33.23;100.00
71004;BME280;59025;42.050;-8.660;2022-07-05T12:23:56;100749.41;;;33.07;100.00
71004;BME280;59025;42.050;-8.660;2022-07-05T12:26:23;100744.44;;;32.63;100.00
71004;BME280;59025;42.050;-8.660;2022-07-05T12:28:51;100736.69;;;32.73;100.00
71004;BME280;59025;42.050;-8.660;2022-07-05T12:31:20;100745.25;;;32.51;100.00
71004;BME280;59025;42.050;-8.660;2022-07-05T12:33:50;100737.22;;;32.36;100.00
71004;BME280;59025;42.050;-8.660;2022-07-05T12:36:19;100741.56;;;32.40;100.00
71004;BME280;59025;42.050;-8.660;2022-07-05T12:38:49;100744.56;;;32.39;100.00
71004;BME280;59025;42.050;-8.660;2022-07-05T12:41:21;100736.78;;;32.61;100.00
71004;BME280;59025;42.050;-8.660;2022-07-05T12:43:53;100744.97;;;32.68;100.00